GW6887 Weather Reports


Display with metric or nautical units.
time (UTC)temp
F
wind
direction
speed
MPH
gust
MPH
rain 1hr
in
rain 24hr
in
rain mn
in
humidity
%
barometer
mb
20260901173204 85 217 6.0 10.0 0.00 0.13 0.00 80 1015.8
20260901172704 84 212 3.0 6.0 0.00 0.13 0.00 81 1015.7
20260901172205 84 225 3.0 7.0 0.00 0.13 0.00 81 1015.7
20260901171204 84 212 3.0 8.0 0.00 0.13 0.00 81 1015.7
20260901165704 84 238 3.0 7.0 0.00 0.13 0.00 80 1015.7
20260901165204 84 176 2.0 10.0 0.00 0.13 0.00 81 1015.6
20260901164703 84 212 4.0 10.0 0.00 0.13 0.00 80 1015.6
20260901164206 84 232 3.0 6.0 0.00 0.13 0.00 81 1015.7
20260901163707 83 206 2.0 6.0 0.00 0.13 0.00 81 1015.7
20260901163206 83 264 2.0 6.0 0.00 0.13 0.00 82 1015.8
20260901162707 83 267 1.0 7.0 0.00 0.13 0.00 81 1015.9
20260901162207 83 209 5.0 9.0 0.00 0.13 0.00 82 1015.9
20260901161707 83 222 3.0 9.0 0.00 0.13 0.00 81 1015.9
20260901161206 83 198 3.0 8.0 0.00 0.13 0.00 82 1015.9
20260901160707 83 204 3.0 7.0 0.00 0.13 0.00 82 1015.9
20260901160208 83 224 2.0 6.0 0.00 0.13 0.00 82 1015.9
20260901155707 83 250 2.0 7.0 0.00 0.13 0.00 82 1016.0
20260901155207 83 221 2.0 7.0 0.00 0.13 0.00 81 1016.0
20260901154207 82 185 0.0 5.0 0.00 0.13 0.00 82 1016.0
20260901153707 82 215 3.0 6.0 0.00 0.13 0.00 82 1015.9
20260901153208 81 209 2.0 3.0 0.00 0.13 0.00 83 1015.9
20260901152707 80 218 2.0 6.0 0.00 0.13 0.00 84 1015.9
20260901152207 80 305 4.0 6.0 0.00 0.13 0.00 85 1015.9
20260901151707 80 213 2.0 5.0 0.00 0.13 0.00 85 1016.0
20260901151207 79 282 2.0 7.0 0.00 0.13 0.00 86 1015.9
20260901150706 79 205 2.0 7.0 0.00 0.13 0.00 86 1015.9
20260901150207 79 224 3.0 6.0 0.00 0.14 0.00 86 1016.0
20260901145707 79 320 2.0 7.0 0.00 0.14 0.00 87 1016.0
20260901145206 79 318 3.0 7.0 0.00 0.14 0.00 87 1016.0
20260901144707 79 228 1.0 6.0 0.00 0.14 0.00 87 1016.0
20260901144207 78 224 5.0 9.0 0.00 0.14 0.00 87 1016.0
20260901143707 78 225 2.0 5.0 0.00 0.14 0.00 87 1016.0
20260901143207 78 320 2.0 5.0 0.00 0.14 0.00 88 1016.0
20260901142706 78 303 2.0 6.0 0.00 0.14 0.00 88 1016.0
20260901142207 77 294 2.0 6.0 0.00 0.15 0.00 88 1016.0
20260901141707 77 251 2.0 5.0 0.00 0.19 0.00 89 1016.0
20260901140706 76 318 2.0 5.0 0.00 0.19 0.00 89 1016.0
20260901135707 76 212 3.0 7.0 0.00 0.23 0.00 90 1016.0
20260901135206 76 201 2.0 6.0 0.00 0.23 0.00 90 1015.9
20260901134207 75 294 1.0 6.0 0.00 0.23 0.00 90 1015.9
20260901133707 75 218 3.0 6.0 0.00 0.23 0.00 90 1015.9
20260901133206 75 232 1.0 5.0 0.00 0.23 0.00 91 1015.9
20260901132206 74 232 2.0 5.0 0.00 0.25 0.00 92 1016.0
20260901131706 74 216 3.0 6.0 0.00 0.25 0.00 93 1015.9
20260901131206 73 205 3.0 6.0 0.00 0.25 0.00 94 1015.9
20260901130707 73 213 3.0 6.0 0.00 0.25 0.00 95 1015.9
20260901130206 73 223 2.0 5.0 0.00 0.26 0.00 95 1015.9
20260901125706 72 225 3.0 7.0 0.00 0.26 0.00 96 1016.0
20260901125206 72 222 3.0 7.0 0.00 0.26 0.00 97 1016.0
20260901124708 72 212 2.0 7.0 0.00 0.26 0.00 97 1015.9
20260901124206 72 213 2.0 5.0 0.00 0.26 0.00 98 1016.0
20260901123706 72 216 3.0 5.0 0.00 0.26 0.00 98 1015.9
20260901123206 71 216 1.0 3.0 0.00 0.26 0.00 98 1015.8
20260901122706 71 185 0.0 1.0 0.00 0.27 0.00 98 1015.8
20260901122207 71 207 0.0 1.0 0.00 0.27 0.00 98 1015.9
20260901121706 70 256 0.0 2.0 0.00 0.27 0.00 98 1015.9
20260901121206 70 257 0.0 1.0 0.00 0.27 0.00 98 1015.9
20260901120706 70 266 0.0 1.0 0.00 0.27 0.00 98 1015.8
20260901120206 70 200 0.0 1.0 0.00 0.27 0.00 98 1015.5
20260901115206 70 158 1.0 1.0 0.00 0.27 0.00 98 1015.5
20260901113706 69 167 0.0 2.0 0.00 0.27 0.00 98 1015.2
20260901113206 70 173 0.0 2.0 0.00 0.27 0.00 98 1015.1
20260901112706 69 160 0.0 1.0 0.00 0.27 0.00 98 1015.1
20260901112206 69 187 0.0 1.0 0.00 0.27 0.00 98 1015.1
20260901111705 69 172 0.0 2.0 0.00 0.27 0.00 97 1015.1
20260901111206 69 160 1.0 2.0 0.00 0.27 0.00 97 1015.0
20260901110706 69 160 0.0 1.0 0.00 0.27 0.00 97 1015.1
20260901110206 69 216 0.0 1.0 0.00 0.27 0.00 97 1015.1
20260901105706 69 247 0.0 1.0 0.00 0.27 0.00 97 1015.0
20260901105206 69 159 1.0 1.0 0.00 0.27 0.00 97 1015.0
20260901104706 69 254 0.0 1.0 0.00 0.27 0.00 97 1015.1
20260901103206 69 150 0.0 2.0 0.00 0.27 0.00 97 1014.8
20260901102706 69 138 0.0 1.0 0.00 0.27 0.00 97 1014.9
20260901102206 69 160 1.0 2.0 0.00 0.27 0.00 97 1014.9
20260901101206 69 193 0.0 1.0 0.00 0.27 0.00 97 1015.0
20260901100706 69 198 0.0 2.0 0.00 0.27 0.00 97 1015.0
20260901100206 69 163 1.0 2.0 0.00 0.27 0.00 97 1014.9
20260901095706 69 162 1.0 2.0 0.00 0.27 0.00 97 1014.9
20260901094706 69 233 0.0 1.0 0.00 0.27 0.00 97 1014.9
20260901094205 69 148 1.0 2.0 0.00 0.27 0.00 97 1014.8
20260901093706 70 157 0.0 2.0 0.00 0.27 0.00 97 1014.9
20260901093206 70 169 0.0 2.0 0.00 0.27 0.00 97 1014.9
20260901092705 70 167 0.0 1.0 0.00 0.27 0.00 97 1014.9
20260901092207 70 174 0.0 1.0 0.00 0.27 0.00 97 1014.9
20260901091705 70 166 0.0 1.0 0.00 0.27 0.00 97 1014.9
20260901090206 70 158 1.0 2.0 0.00 0.27 0.00 97 1014.9
20260901085707 70 181 0.0 1.0 0.00 0.27 0.00 97 1014.9
20260901084706 70 170 0.0 1.0 0.00 0.27 0.00 97 1014.8
20260901083706 70 166 0.0 1.0 0.00 0.27 0.00 96 1014.7
20260901083206 70 152 0.0 1.0 0.00 0.27 0.00 96 1014.7
20260901082706 70 222 0.0 1.0 0.00 0.27 0.00 96 1014.8
20260901082206 70 256 0.0 2.0 0.00 0.27 0.00 96 1014.8
20260901081706 70 199 0.0 2.0 0.00 0.27 0.00 96 1014.8
20260901081206 70 219 0.0 1.0 0.00 0.27 0.00 96 1014.8
20260901080206 70 147 0.0 2.0 0.00 0.27 0.00 96 1014.8
20260901075706 71 215 1.0 3.0 0.00 0.27 0.00 96 1014.8
20260901075206 70 209 1.0 2.0 0.00 0.27 0.00 96 1014.7
20260901074706 70 182 1.0 2.0 0.00 0.27 0.00 96 1014.6
20260901074206 70 186 1.0 5.0 0.00 0.27 0.00 96 1014.7
20260901073705 70 170 0.0 2.0 0.00 0.27 0.00 96 1014.7
20260901073205 70 158 1.0 2.0 0.00 0.27 0.00 96 1014.7
20260901072705 70 159 1.0 2.0 0.00 0.27 0.00 96 1014.6
20260901072206 70 167 0.0 2.0 0.00 0.27 0.00 96 1014.6
20260901071705 70 172 0.0 2.0 0.00 0.27 0.00 96 1014.6
20260901071206 70 175 1.0 2.0 0.00 0.27 0.00 96 1014.6
20260901065706 70 157 1.0 2.0 0.00 0.27 0.00 95 1014.7
20260901065206 70 165 0.0 2.0 0.00 0.27 0.00 95 1014.7
20260901064705 70 67 0.0 1.0 0.00 0.27 0.00 95 1014.7
20260901064205 70 177 0.0 1.0 0.00 0.27 0.00 95 1014.7
20260901062706 71 154 0.0 1.0 0.00 0.27 0.00 95 1014.7
20260901062207 71 172 0.0 1.0 0.00 0.27 0.00 94 1014.7
20260901061705 71 198 0.0 1.0 0.00 0.27 0.00 94 1014.7
20260901061206 71 199 0.0 1.0 0.00 0.27 0.00 94 1014.7
20260901060705 71 179 0.0 1.0 0.00 0.27 0.00 94 1014.8
20260901060206 71 179 0.0 1.0 0.00 0.27 0.00 94 1014.8
20260901055206 71 198 0.0 1.0 0.00 0.27 0.00 94 1014.9
20260901054206 72 221 0.0 1.0 0.00 0.27 0.00 93 1015.0
20260901053706 72 154 0.0 2.0 0.00 0.27 0.00 93 1015.0
20260901053205 72 238 1.0 2.0 0.00 0.27 0.00 93 1015.0
20260901052705 72 247 1.0 2.0 0.00 0.27 0.00 93 1014.9
20260901052205 72 264 0.0 3.0 0.00 0.27 0.00 92 1014.9
20260901051705 72 219 2.0 3.0 0.00 0.27 0.00 93 1014.9
20260901051205 72 218 2.0 3.0 0.00 0.27 0.00 93 1014.9
20260901050705 72 220 1.0 2.0 0.00 0.27 0.00 93 1014.9
20260901050205 72 184 1.0 2.0 0.00 0.27 0.00 93 1014.9
20260901045707 72 189 1.0 5.0 0.12 0.27 0.00 92 1014.9
20260901045207 72 210 1.0 2.0 0.12 0.27 0.00 92 1014.9
20260901044205 72 226 0.0 2.0 0.12 0.27 0.00 92 1014.9
20260901043706 73 231 0.0 2.0 0.12 0.27 0.00 92 1014.9
20260901042706 73 178 1.0 2.0 0.12 0.27 0.00 91 1014.9
20260901042205 73 229 0.0 2.0 0.12 0.27 0.00 91 1014.9
20260901041206 74 177 0.0 1.0 0.12 0.27 0.00 90 1015.0
20260901040205 74 157 0.0 1.0 0.12 0.27 0.00 89 1015.1
20260901035706 74 258 0.0 2.0 0.00 0.15 0.12 89 1015.2
20260901035205 74 237 2.0 5.0 0.00 0.15 0.12 88 1015.1
20260901034705 74 243 2.0 5.0 0.00 0.15 0.12 88 1015.1
20260901034205 75 213 2.0 5.0 0.00 0.15 0.12 88 1015.2
20260901033705 75 210 2.0 3.0 0.00 0.15 0.12 88 1015.2
20260901033207 75 258 1.0 3.0 0.00 0.15 0.12 88 1015.2
20260901032205 75 206 1.0 3.0 0.00 0.15 0.12 87 1015.1
20260901031706 76 226 2.0 5.0 0.00 0.15 0.12 87 1015.2
20260901031205 76 203 2.0 3.0 0.00 0.15 0.12 86 1015.2
20260901030705 76 241 1.0 3.0 0.00 0.15 0.12 86 1015.2
20260901030206 76 250 2.0 3.0 0.00 0.15 0.12 85 1015.2
20260901025705 76 215 1.0 5.0 0.00 0.15 0.12 85 1015.2
20260901025205 76 227 1.0 5.0 0.00 0.15 0.12 85 1015.2
20260901024705 76 237 2.0 3.0 0.00 0.15 0.12 85 1015.2
20260901022204 76 172 1.0 5.0 0.00 0.15 0.12 86 1015.0
20260901021705 77 180 1.0 7.0 0.00 0.15 0.12 86 1014.9
20260901021205 77 191 1.0 6.0 0.00 0.15 0.12 85 1015.0
20260901020705 77 203 4.0 6.0 0.00 0.15 0.12 84 1015.0
20260901020205 77 203 2.0 5.0 0.00 0.15 0.12 84 1015.0
20260901015705 77 197 2.0 7.0 0.00 0.15 0.12 84 1015.0
20260901015205 77 194 3.0 6.0 0.00 0.15 0.12 84 1015.0
20260901014705 77 195 3.0 6.0 0.00 0.15 0.12 84 1015.0
20260901014205 77 176 1.0 3.0 0.00 0.15 0.12 84 1014.9
20260901013705 78 201 3.0 5.0 0.00 0.15 0.12 83 1015.0
20260901013205 78 194 2.0 5.0 0.00 0.15 0.12 83 1015.0
20260901012205 78 203 3.0 7.0 0.00 0.15 0.12 83 1015.0
20260901011705 78 203 3.0 6.0 0.00 0.15 0.12 83 1014.9
20260901011205 78 198 4.0 6.0 0.00 0.15 0.12 83 1014.9
20260901010705 78 226 3.0 7.0 0.00 0.15 0.12 83 1014.7
20260901010205 78 188 1.0 5.0 0.00 0.15 0.12 83 1014.5
20260901005705 78 187 3.0 6.0 0.00 0.15 0.12 83 1014.7
20260901005205 78 208 3.0 7.0 0.00 0.15 0.12 82 1014.8
20260901004705 78 199 4.0 6.0 0.00 0.15 0.12 82 1014.8
20260901004204 79 214 3.0 6.0 0.00 0.15 0.12 82 1014.9
20260901003705 79 197 4.0 6.0 0.00 0.15 0.12 82 1014.9
20260901003205 79 212 3.0 7.0 0.00 0.15 0.12 81 1014.9
20260901002704 79 217 5.0 8.0 0.00 0.15 0.12 81 1014.9
20260901002205 79 215 3.0 8.0 0.00 0.15 0.12 81 1014.8
20260901001705 80 217 4.0 9.0 0.00 0.15 0.12 80 1014.8
20260901001205 80 220 5.0 9.0 0.00 0.15 0.12 80 1014.7
20260901000705 80 206 5.0 10.0 0.00 0.15 0.12 79 1014.6
20260901000204 80 222 5.0 10.0 0.00 0.15 0.12 79 1014.6
20260831235704 80 226 5.0 12.0 0.00 0.15 0.12 78 1014.5
20260831234705 81 211 5.0 9.0 0.00 0.15 0.12 78 1014.4
20260831234205 81 214 6.0 10.0 0.00 0.15 0.12 77 1014.4
20260831233704 81 207 3.0 9.0 0.00 0.15 0.12 78 1014.4
20260831232704 81 211 5.0 9.0 0.00 0.15 0.12 79 1014.3
20260831231705 81 201 2.0 8.0 0.00 0.15 0.12 79 1014.4
20260831231205 81 218 5.0 10.0 0.00 0.15 0.12 79 1014.4
20260831230704 80 211 3.0 7.0 0.00 0.15 0.12 80 1014.5
20260831230204 81 188 2.0 6.0 0.00 0.15 0.12 80 1014.4
20260831225704 81 198 2.0 6.0 0.00 0.15 0.12 80 1014.4
20260831225204 81 210 2.0 6.0 0.00 0.15 0.12 79 1014.3
20260831224205 81 215 1.0 5.0 0.00 0.15 0.12 79 1014.2
20260831223705 81 179 1.0 5.0 0.00 0.15 0.12 78 1014.0
20260831223204 82 191 3.0 6.0 0.00 0.15 0.12 77 1014.1
20260831222705 82 169 1.0 5.0 0.00 0.15 0.12 77 1014.1
20260831222204 82 201 1.0 5.0 0.00 0.15 0.12 76 1014.2
20260831221704 82 209 4.0 10.0 0.00 0.15 0.12 74 1014.1
20260831220704 83 211 3.0 10.0 0.00 0.15 0.12 72 1014.1
20260831220204 83 199 4.0 9.0 0.00 0.15 0.12 73 1014.1
20260831215705 83 205 6.0 10.0 0.00 0.15 0.12 72 1014.1
20260831215204 83 206 4.0 10.0 0.00 0.15 0.12 72 1014.1
20260831214204 83 212 6.0 10.0 0.00 0.15 0.12 71 1014.1
20260831213705 83 207 3.0 9.0 0.00 0.15 0.12 72 1014.1
20260831213204 83 203 2.0 7.0 0.00 0.15 0.12 72 1014.3
20260831212705 82 229 3.0 8.0 0.00 0.15 0.12 73 1014.2
20260831211704 82 147 2.0 8.0 0.00 0.15 0.12 73 1014.2
20260831211205 82 197 5.0 9.0 0.00 0.15 0.12 73 1014.3
20260831210705 82 192 4.0 8.0 0.00 0.15 0.12 73 1014.2
20260831210204 82 197 4.0 8.0 0.00 0.15 0.12 73 1014.3
20260831205704 81 206 3.0 9.0 0.00 0.15 0.12 74 1014.3
20260831205204 81 146 3.0 9.0 0.00 0.15 0.12 75 1014.2
20260831204705 81 194 3.0 14.0 0.00 0.15 0.12 74 1014.3
20260831204204 81 185 3.0 14.0 0.00 0.15 0.12 75 1014.3
20260831203705 81 199 3.0 8.0 0.00 0.15 0.12 75 1014.2
20260831203204 81 174 5.0 10.0 0.00 0.15 0.12 76 1014.2
20260831202704 81 163 2.0 9.0 0.00 0.15 0.12 76 1014.3
20260831202205 80 198 3.0 12.0 0.00 0.15 0.12 75 1014.3
20260831201704 79 176 2.0 9.0 0.00 0.15 0.12 78 1014.2
20260831200705 79 211 5.0 13.0 0.00 0.15 0.12 79 1014.4
20260831200204 79 171 3.0 9.0 0.00 0.15 0.12 81 1014.4
20260831195704 79 201 3.0 7.0 0.01 0.15 0.12 81 1014.4
20260831195205 79 188 3.0 8.0 0.01 0.15 0.12 81 1014.5
20260831194705 79 182 3.0 8.0 0.01 0.15 0.12 81 1014.7
20260831194205 79 206 2.0 10.0 0.01 0.15 0.12 80 1014.7
20260831193705 79 221 3.0 9.0 0.01 0.15 0.12 80 1014.7
20260831192704 78 203 3.0 12.0 0.01 0.15 0.12 81 1014.9
20260831192204 76 189 2.0 7.0 0.01 0.15 0.12 86 1014.9
20260831191704 75 195 2.0 7.0 0.01 0.15 0.12 89 1015.0
20260831191205 75 187 1.0 5.0 0.01 0.15 0.12 88 1015.2
20260831190206 74 193 1.0 7.0 0.01 0.15 0.12 89 1015.4
20260831185704 74 210 3.0 7.0 0.00 0.14 0.11 89 1015.5
20260831185204 74 180 1.0 2.0 0.00 0.14 0.11 90 1015.5
20260831184704 75 171 1.0 3.0 0.00 0.14 0.11 88 1015.7
20260831184204 75 201 2.0 5.0 0.00 0.14 0.11 86 1015.9
20260831183704 74 222 0.0 3.0 0.00 0.14 0.11 86 1015.9
20260831183204 74 207 1.0 5.0 0.00 0.14 0.11 88 1015.5
20260831182204 76 189 2.0 2.0 0.00 0.14 0.11 86 1015.9
20260831181705 76 192 2.0 2.0 0.00 0.14 0.11 84 1016.3
20260831180704 77 126 0.0 2.0 0.00 0.14 0.11 83 1016.5
20260831180204 77 338 1.0 2.0 0.00 0.14 0.11 83 1016.5
20260831175204 77 196 1.0 8.0 0.00 0.14 0.11 81 1016.1
20260831174703 77 197 3.0 9.0 0.00 0.14 0.11 81 1016.0
20260831174204 78 199 3.0 8.0 0.00 0.14 0.11 81 1015.8